Terminal Aerodrome Forecast
Issued by NWS

Home | Current Version | Previous Version | Text Only | Print | Product List | Glossary On
Versions: 1 2 3 4 5 6 7 8 9 10 11 12 13 14 15 16 17 18 19 20 21 22 23 24 25 26
000
FTUS41 KOKX 261400 AAA
TAFTEB
TAF AMD
KTEB 261430Z 2615/2712 21010KT P6SM SCT040 SCT080 SCT100
     FM270100 19006KT P6SM BKN040 BKN100
     FM270600 18004KT 6SM BR BKN040 OVC080 PROB30 2710/2712 4SM SHRA
      BR=

USA.gov is the U.S. government's official web portal to all federal, state and local government web resources and services.